Time;durP1;ratioP1;P1;durP2;ratioP2;P2;SDS_P1;SDS_P2;PMS_P1;PMS_P2;Temp;Humidity;BMP_temperature;BMP_pressure;BME280_temperature;BME280_humidity;BME280_pressure;Samples;Min_cycle;Max_cycle;Signal;HPM_P1;HPM_P2
2022/05/17 00:01:57;;;;;;;8.60;2.78;;;;;;;13.95;69.20;93010.72;4975938;28;20464;-74
2022/05/17 00:04:22;;;;;;;7.13;2.90;;;;;;;13.93;68.64;93009.44;4984115;28;20030;-75
2022/05/17 00:06:49;;;;;;;9.23;3.00;;;;;;;13.94;67.35;93016.28;4985339;28;20038;-75
2022/05/17 00:09:16;;;;;;;6.55;2.92;;;;;;;13.94;67.06;93011.78;4986368;28;20034;-75
2022/05/17 00:11:45;;;;;;;11.05;3.10;;;;;;;13.94;67.26;93011.78;4979788;28;20119;-75
2022/05/17 00:14:11;;;;;;;8.38;3.30;;;;;;;13.91;67.66;93017.63;4991978;28;20042;-74
2022/05/17 00:16:38;;;;;;;9.32;2.63;;;;;;;13.86;67.59;93019.59;4992798;28;20042;-75
2022/05/17 00:19:03;;;;;;;6.45;3.03;;;;;;;13.83;68.02;93020.19;4992929;28;20026;-75
2022/05/17 00:21:29;;;;;;;5.75;2.88;;;;;;;13.82;68.21;93015.97;4993894;28;20071;-75
2022/05/17 00:23:55;;;;;;;10.50;3.05;;;;;;;13.76;67.66;93010.03;4993638;28;20526;-75
2022/05/17 00:26:21;;;;;;;7.70;2.75;;;;;;;13.77;67.74;93010.81;4993596;28;20048;-75
2022/05/17 00:28:47;;;;;;;11.35;3.35;;;;;;;13.78;67.73;93007.91;4993001;28;20074;-74
2022/05/17 00:31:13;;;;;;;6.15;3.00;;;;;;;13.81;68.02;93012.56;4946444;28;20427;-74
2022/05/17 00:33:38;;;;;;;8.43;3.58;;;;;;;13.79;68.26;93009.44;4961383;28;20026;-75
2022/05/17 00:36:04;;;;;;;10.98;3.40;;;;;;;13.74;68.37;93006.94;4991690;28;20045;-74
2022/05/17 00:38:30;;;;;;;12.75;3.10;;;;;;;13.73;68.45;93005.34;4993173;28;20146;-75
2022/05/17 00:40:56;;;;;;;7.30;3.63;;;;;;;13.70;68.82;92998.81;4981005;28;20045;-75
2022/05/17 00:44:42;;;;;;;11.85;2.90;;;;;;;13.69;68.50;92994.66;4973868;28;20133;-75
2022/05/17 00:46:16;;;;;;;5.53;2.45;;;;;;;13.67;67.41;92999.41;4986999;28;20137;-74
2022/05/17 00:48:41;;;;;;;9.75;2.90;;;;;;;13.68;67.36;93002.81;5014137;28;20180;-74
2022/05/17 00:51:07;;;;;;;8.98;2.90;;;;;;;13.66;67.00;92997.06;4990621;28;20127;-74
2022/05/17 00:53:34;;;;;;;6.28;2.90;;;;;;;13.64;67.21;92989.47;4991521;28;20113;-75
2022/05/17 00:56:16;;;;;;;7.55;2.92;;;;;;;13.62;67.65;92989.00;4973951;28;20045;-75
2022/05/17 00:58:57;;;;;;;8.10;3.33;;;;;;;13.58;68.02;92995.09;4987341;28;20043;-75
2022/05/17 01:01:25;;;;;;;8.77;2.72;;;;;;;13.55;67.74;92991.22;4975077;28;20508;-75
2022/05/17 01:03:58;;;;;;;8.30;3.08;;;;;;;13.56;67.94;92989.38;4974860;28;20539;-75
2022/05/17 01:06:32;;;;;;;5.90;2.80;;;;;;;13.53;67.97;92990.72;4982353;28;20070;-75
2022/05/17 01:08:58;;;;;;;8.57;2.97;;;;;;;13.57;68.97;92989.06;4991356;28;20037;-75
2022/05/17 01:11:23;;;;;;;6.93;2.95;;;;;;;13.61;69.24;92992.69;4993568;28;20500;-75
2022/05/17 01:16:33;;;;;;;7.93;3.45;;;;;;;13.68;70.10;92994.94;4973662;28;20485;-75
2022/05/17 01:18:59;;;;;;;9.23;3.20;;;;;;;13.65;70.20;92993.66;4986912;28;20040;-75
2022/05/17 01:21:24;;;;;;;11.13;3.58;;;;;;;13.65;70.97;92992.91;4974204;28;20050;-75
2022/05/17 01:23:50;;;;;;;8.48;3.55;;;;;;;13.66;72.32;92989.94;4973522;28;20126;-75
2022/05/17 01:26:21;;;;;;;12.70;3.47;;;;;;;13.63;72.81;92997.66;4987476;28;20037;-75
2022/05/17 01:28:48;;;;;;;6.37;3.10;;;;;;;13.58;72.82;92992.47;4991301;28;20101;-75
2022/05/17 01:31:15;;;;;;;7.32;3.47;;;;;;;13.53;73.10;92991.53;4999482;28;20070;-74
2022/05/17 01:33:41;;;;;;;8.85;3.38;;;;;;;13.47;73.62;92992.69;4991900;28;20069;-74
2022/05/17 01:36:10;;;;;;;7.78;3.40;;;;;;;13.42;73.34;92990.16;4989435;28;20065;-75
2022/05/17 01:38:36;;;;;;;10.18;3.72;;;;;;;13.40;74.77;92992.28;4988273;28;20039;-75
2022/05/17 01:41:03;;;;;;;10.23;3.70;;;;;;;13.37;74.70;92997.34;4975973;28;20045;-75
2022/05/17 01:43:28;;;;;;;8.85;3.22;;;;;;;13.29;75.56;92985.66;4972831;28;22033;-74
2022/05/17 01:45:54;;;;;;;12.40;3.45;;;;;;;13.22;75.40;92991.25;4974500;28;20058;-75
2022/05/17 01:48:20;;;;;;;9.23;3.83;;;;;;;13.22;75.29;92985.22;4980942;28;20030;-74
2022/05/17 01:50:45;;;;;;;9.20;3.40;;;;;;;13.23;75.45;92987.56;4993526;28;20054;-75
2022/05/17 01:53:11;;;;;;;7.47;3.60;;;;;;;13.26;75.27;92987.00;4991583;28;20042;-74
2022/05/17 01:55:37;;;;;;;9.43;3.60;;;;;;;13.24;75.24;92980.44;4989111;28;20108;-75
2022/05/17 01:58:04;;;;;;;11.32;3.78;;;;;;;13.20;75.77;92982.88;4988510;28;20035;-75
2022/05/17 02:00:30;;;;;;;8.45;3.75;;;;;;;13.19;76.20;92980.53;4990514;28;20045;-75
2022/05/17 02:02:56;;;;;;;8.48;4.00;;;;;;;13.18;77.46;92984.25;4991924;28;20039;-75
2022/05/17 02:05:25;;;;;;;9.48;4.15;;;;;;;13.11;77.38;92982.75;5006389;28;20792;-74
2022/05/17 02:07:50;;;;;;;8.00;3.58;;;;;;;13.05;77.32;92977.88;4992944;28;20030;-74
2022/05/17 02:10:18;;;;;;;8.20;3.75;;;;;;;12.99;77.30;92974.56;4990107;28;20057;-75
2022/05/17 02:12:43;;;;;;;10.18;3.90;;;;;;;12.95;77.75;92976.22;4992091;28;20047;-75
2022/05/17 02:15:11;;;;;;;12.38;4.13;;;;;;;12.95;77.58;92975.41;4991401;28;20035;-75
2022/05/17 02:17:37;;;;;;;12.32;4.45;;;;;;;12.94;78.07;92971.25;4990072;28;20034;-75
2022/05/17 02:20:05;;;;;;;10.73;4.07;;;;;;;12.94;77.83;92964.13;4990322;28;20530;-75
2022/05/17 02:22:31;;;;;;;18.45;4.10;;;;;;;12.94;77.55;92964.13;4989138;28;20315;-75
2022/05/17 02:24:56;;;;;;;10.05;4.00;;;;;;;12.93;78.07;92959.97;4991482;28;20738;-74
2022/05/17 02:27:22;;;;;;;11.23;4.10;;;;;;;12.94;78.17;92963.34;4987406;28;20042;-74
2022/05/17 02:29:47;;;;;;;8.77;3.83;;;;;;;12.93;77.72;92965.22;4990766;28;20034;-74
2022/05/17 02:32:14;;;;;;;10.90;4.00;;;;;;;12.92;77.91;92961.00;4991290;28;20038;-74
2022/05/17 02:34:40;;;;;;;10.73;3.72;;;;;;;12.92;77.25;92955.75;4991472;28;20468;-74
2022/05/17 02:37:06;;;;;;;6.65;3.30;;;;;;;12.94;76.57;92958.88;4988817;28;20133;-74
2022/05/17 02:39:32;;;;;;;8.98;3.42;;;;;;;12.94;75.18;92969.38;4987707;28;20118;-75
2022/05/17 02:41:57;;;;;;;6.05;2.97;;;;;;;12.90;74.36;92953.44;4986256;28;20097;-75
2022/05/17 02:44:23;;;;;;;11.57;3.70;;;;;;;12.88;74.54;92952.16;4989598;28;20018;-74
2022/05/17 02:46:49;;;;;;;7.80;3.63;;;;;;;12.86;74.82;92952.44;4980086;28;20034;-74
2022/05/17 02:49:14;;;;;;;11.85;3.63;;;;;;;12.86;74.93;92949.03;4987875;28;20436;-74
2022/05/17 02:51:40;;;;;;;12.20;3.92;;;;;;;12.84;74.83;92956.44;4990228;28;20026;-75
2022/05/17 02:54:10;;;;;;;10.30;3.75;;;;;;;12.86;75.19;92952.44;4990075;28;20109;-74
2022/05/17 02:56:37;;;;;;;10.18;3.90;;;;;;;12.86;75.44;92959.56;4992179;28;20046;-75
2022/05/17 02:59:04;;;;;;;9.65;4.60;;;;;;;12.85;76.05;92955.34;4989749;28;20408;-74
2022/05/17 03:01:30;;;;;;;9.30;3.53;;;;;;;12.85;75.95;92955.34;4974090;28;21546;-74
2022/05/17 03:03:56;;;;;;;8.10;3.78;;;;;;;12.83;75.72;92952.22;4992013;28;20432;-74
2022/05/17 03:06:22;;;;;;;7.18;3.42;;;;;;;12.83;75.45;92947.75;4986094;28;20118;-74
2022/05/17 03:08:48;;;;;;;8.10;3.50;;;;;;;12.84;74.99;92949.31;4973974;28;20487;-74
2022/05/17 03:11:14;;;;;;;8.70;3.50;;;;;;;12.83;74.41;92957.47;4976245;28;20039;-75
2022/05/17 03:13:41;;;;;;;7.82;3.35;;;;;;;12.80;74.68;92956.22;4983261;28;20133;-75
2022/05/17 03:16:06;;;;;;;8.13;3.30;;;;;;;12.83;74.77;92949.59;4991233;28;20030;-75
2022/05/17 03:18:34;;;;;;;8.25;3.95;;;;;;;12.81;74.95;92947.28;4992021;28;20058;-75
2022/05/17 03:21:00;;;;;;;7.82;3.50;;;;;;;12.79;75.07;92949.41;4987540;28;20042;-75
2022/05/17 03:23:26;;;;;;;7.30;3.70;;;;;;;12.78;75.07;92950.47;4990486;28;20038;-75
2022/05/17 03:25:51;;;;;;;10.30;4.05;;;;;;;12.74;75.46;92943.44;4990567;28;20042;-75
2022/05/17 03:28:17;;;;;;;10.02;3.55;;;;;;;12.71;75.96;92948.22;4991073;28;20049;-75
2022/05/17 03:30:43;;;;;;;9.20;3.30;;;;;;;12.70;75.52;92949.28;4990482;28;20080;-74
2022/05/17 03:33:10;;;;;;;6.88;3.95;;;;;;;12.70;75.38;92951.16;4973421;28;20042;-75
2022/05/17 03:35:36;;;;;;;5.88;3.50;;;;;;;12.69;75.20;92946.94;4988932;28;20030;-75
2022/05/17 03:38:02;;;;;;;8.55;3.53;;;;;;;12.69;74.25;92947.72;5002678;28;20046;-75
2022/05/17 03:40:28;;;;;;;9.52;3.60;;;;;;;12.73;73.18;92950.56;4960068;28;20101;-75
2022/05/17 03:42:54;;;;;;;8.70;3.28;;;;;;;12.71;72.43;92953.47;4974279;28;20046;-75
2022/05/17 03:45:19;;;;;;;9.88;3.13;;;;;;;12.67;73.24;92954.31;5002282;28;20033;-75
2022/05/17 03:47:45;;;;;;;8.55;3.40;;;;;;;12.64;72.47;92949.66;4992410;28;20042;-74
2022/05/17 03:50:12;;;;;;;11.32;3.40;;;;;;;12.62;72.26;92957.81;4975969;28;20042;-74
2022/05/17 03:52:38;;;;;;;10.00;3.35;;;;;;;12.62;71.80;92954.41;5011006;28;20455;-75
2022/05/17 03:55:06;;;;;;;9.25;3.47;;;;;;;12.58;71.57;92946.31;5009951;28;20069;-74
2022/05/17 03:57:32;;;;;;;8.70;3.00;;;;;;;12.61;71.51;92953.63;4993107;28;20032;-75
2022/05/17 03:59:58;;;;;;;9.27;3.40;;;;;;;12.59;71.75;92950.50;5009872;28;20402;-75
2022/05/17 04:02:25;;;;;;;13.70;3.42;;;;;;;12.57;72.11;92951.88;4993735;28;20044;-75
2022/05/17 04:04:55;;;;;;;11.07;3.20;;;;;;;12.53;72.19;92953.50;4992200;28;20044;-74
2022/05/17 04:07:21;;;;;;;10.30;3.33;;;;;;;12.53;72.09;92954.28;5010974;28;20037;-74
2022/05/17 04:09:47;;;;;;;13.18;3.40;;;;;;;12.54;72.20;92955.84;4992806;28;20408;-74
2022/05/17 04:12:13;;;;;;;12.55;3.28;;;;;;;12.54;72.34;92953.22;5004176;28;20029;-75
2022/05/17 04:14:39;;;;;;;12.38;3.63;;;;;;;12.54;72.78;92953.22;4977308;28;20397;-75
2022/05/17 04:17:05;;;;;;;10.73;3.72;;;;;;;12.55;73.16;92952.16;5008816;28;20042;-75
2022/05/17 04:19:31;;;;;;;8.88;3.45;;;;;;;12.56;72.59;92952.91;5009921;28;20145;-74
2022/05/17 04:21:58;;;;;;;8.90;3.20;;;;;;;12.56;71.99;92958.94;5000065;28;20037;-75
2022/05/17 04:24:26;;;;;;;9.38;3.53;;;;;;;12.60;71.98;92954.69;4987229;28;20519;-76
2022/05/17 04:26:52;;;;;;;11.82;3.00;;;;;;;12.62;71.77;92952.56;5002646;28;20354;-74
2022/05/17 04:29:17;;;;;;;15.95;3.90;;;;;;;12.64;72.07;92954.91;4999281;28;20487;-74
2022/05/17 04:31:44;;;;;;;10.43;3.22;;;;;;;12.64;72.12;92955.69;4967586;28;20057;-75
2022/05/17 04:34:10;;;;;;;9.73;3.70;;;;;;;12.69;71.97;92952.19;4997375;28;20038;-74
2022/05/17 04:36:36;;;;;;;12.60;2.92;;;;;;;12.71;71.46;92950.84;4991026;28;20042;-74
2022/05/17 04:39:03;;;;;;;12.13;3.58;;;;;;;12.74;71.96;92949.47;5005148;28;20041;-75
2022/05/17 04:41:28;;;;;;;6.88;3.40;;;;;;;12.80;71.68;92958.06;4972851;28;20054;-73
2022/05/17 04:43:54;;;;;;;9.48;3.42;;;;;;;12.84;71.60;92953.81;4988583;28;20112;-74
2022/05/17 04:46:20;;;;;;;10.43;3.38;;;;;;;12.89;72.04;92964.22;5002443;28;20073;-73
2022/05/17 04:48:46;;;;;;;5.65;3.10;;;;;;;12.96;71.83;92955.97;5004866;28;20053;-73
2022/05/17 04:51:12;;;;;;;8.38;3.42;;;;;;;13.00;71.91;92962.22;5002137;28;20033;-73
2022/05/17 04:53:40;;;;;;;10.02;3.40;;;;;;;13.05;72.20;92955.00;5006728;28;20042;-73
2022/05/17 04:56:09;;;;;;;10.48;3.33;;;;;;;13.10;72.38;92962.03;5001062;28;20030;-73
2022/05/17 04:58:35;;;;;;;8.90;3.42;;;;;;;13.16;72.35;92971.38;4993112;28;20475;-73
2022/05/17 05:01:01;;;;;;;7.90;3.25;;;;;;;13.21;72.55;92952.88;5008714;28;20038;-73
2022/05/17 05:03:28;;;;;;;12.68;3.33;;;;;;;13.24;72.99;92954.94;4985498;28;20042;-73
2022/05/17 05:05:53;;;;;;;9.35;3.60;;;;;;;13.32;72.73;92954.28;4995596;28;20049;-73
2022/05/17 05:08:19;;;;;;;9.68;3.35;;;;;;;13.40;72.49;92959.97;5002892;28;20038;-73
2022/05/17 05:10:45;;;;;;;13.75;3.60;;;;;;;13.49;72.35;92961.63;5001694;28;20045;-73
2022/05/17 05:13:19;;;;;;;9.93;3.67;;;;;;;13.58;71.92;92958.28;5003364;28;20030;-73
2022/05/17 05:15:45;;;;;;;8.43;3.38;;;;;;;13.67;71.68;92964.44;4986132;28;20038;-73
2022/05/17 05:18:11;;;;;;;11.93;3.70;;;;;;;13.80;72.05;92968.13;5005209;28;20037;-74
2022/05/17 05:20:38;;;;;;;8.93;3.55;;;;;;;13.95;73.18;92971.22;5002405;28;20526;-73
2022/05/17 05:23:05;;;;;;;11.15;3.30;;;;;;;14.05;72.79;92974.72;4983279;28;20041;-73
2022/05/17 05:25:31;;;;;;;8.95;3.60;;;;;;;14.14;72.14;92972.97;5002331;28;20064;-73
2022/05/17 05:27:57;;;;;;;10.82;3.28;;;;;;;14.25;72.28;92974.31;4976491;28;21837;-72
2022/05/17 05:30:24;;;;;;;7.03;3.58;;;;;;;14.36;72.20;92970.38;4990402;28;20038;-73
2022/05/17 05:32:50;;;;;;;12.93;3.88;;;;;;;14.56;73.12;92974.41;5007087;28;20097;-73
2022/05/17 05:35:17;;;;;;;12.68;3.80;;;;;;;14.77;73.13;92969.47;5006550;28;20132;-73
2022/05/17 05:37:43;;;;;;;9.80;3.72;;;;;;;15.00;73.42;92966.84;5011382;28;20046;-73
2022/05/17 05:40:11;;;;;;;15.45;4.90;;;;;;;15.11;73.47;92970.00;5012887;28;20403;-73
2022/05/17 05:42:38;;;;;;;13.00;4.00;;;;;;;15.19;72.72;92974.53;5011062;28;20038;-74
2022/05/17 05:45:04;;;;;;;11.20;3.50;;;;;;;15.31;71.75;92971.31;5012203;28;20068;-73
2022/05/17 05:47:30;;;;;;;9.73;3.80;;;;;;;15.39;71.88;92974.00;5011453;28;20448;-73
2022/05/17 05:49:56;;;;;;;11.20;4.50;;;;;;;15.52;73.10;92969.72;5012161;28;20050;-73
2022/05/17 05:52:21;;;;;;;11.68;4.47;;;;;;;15.83;72.53;92982.13;5010154;28;20092;-73
2022/05/17 05:54:47;;;;;;;8.27;3.88;;;;;;;16.73;70.32;92986.13;4995567;28;20072;-74
2022/05/17 05:57:13;;;;;;;9.80;3.92;;;;;;;17.67;67.54;92976.47;5010685;28;20026;-74
2022/05/17 05:59:39;;;;;;;8.98;3.65;;;;;;;18.62;64.39;92971.75;4959638;28;20526;-74
2022/05/17 06:02:06;;;;;;;13.70;4.50;;;;;;;19.52;61.33;92972.94;4993069;28;20101;-74
2022/05/17 06:04:32;;;;;;;12.05;4.20;;;;;;;20.33;58.25;92975.06;5008588;28;20045;-74
2022/05/17 06:07:00;;;;;;;10.85;3.97;;;;;;;21.03;53.25;92976.69;5012899;28;20414;-75
2022/05/17 06:09:27;;;;;;;18.60;4.80;;;;;;;21.34;53.82;92979.41;5012046;28;20033;-74
2022/05/17 06:11:53;;;;;;;15.13;5.10;;;;;;;21.53;53.43;92981.47;5011997;28;20395;-75
2022/05/17 06:14:23;;;;;;;19.83;4.78;;;;;;;21.76;52.97;92978.22;5005331;28;20077;-74
2022/05/17 06:16:52;;;;;;;23.25;7.05;;;;;;;22.12;51.42;92974.50;4980008;28;20487;-74
2022/05/17 06:19:18;;;;;;;22.75;6.50;;;;;;;22.21;51.92;92983.09;5012758;28;20114;-75
2022/05/17 06:21:44;;;;;;;15.90;6.30;;;;;;;22.42;50.21;92982.78;5011887;28;20479;-75
2022/05/17 06:24:10;;;;;;;23.85;6.65;;;;;;;22.36;50.59;92978.88;5011141;28;20040;-75
2022/05/17 06:26:36;;;;;;;18.30;6.40;;;;;;;22.46;51.46;92977.56;4994118;28;20034;-74
2022/05/17 06:29:03;;;;;;;14.98;6.30;;;;;;;22.53;50.16;92977.69;5012239;28;20033;-75
2022/05/17 06:31:30;;;;;;;15.68;5.38;;;;;;;22.86;49.48;92973.81;4976277;28;20074;-75
2022/05/17 06:33:56;;;;;;;15.02;6.03;;;;;;;23.13;48.54;92979.31;4959429;28;20041;-75
2022/05/17 06:36:21;;;;;;;22.55;7.00;;;;;;;22.78;50.33;92975.53;5003706;28;20038;-74
2022/05/17 06:38:47;;;;;;;42.85;7.38;;;;;;;22.72;51.47;92976.97;4994297;28;20132;-75
2022/05/17 06:41:13;;;;;;;21.10;7.10;;;;;;;22.37;52.46;92984.97;4994656;28;20408;-74
2022/05/17 06:43:38;;;;;;;21.70;7.13;;;;;;;22.40;51.97;92981.59;4977848;28;20559;-74
2022/05/17 06:46:04;;;;;;;17.40;6.63;;;;;;;22.01;53.93;92981.47;4984038;28;20045;-75
2022/05/17 06:48:31;;;;;;;17.92;6.00;;;;;;;21.94;54.24;92981.31;4997066;28;20030;-73
2022/05/17 06:51:08;;;;;;;22.63;5.88;;;;;;;22.06;51.74;92981.19;4994141;28;20125;-74
2022/05/17 06:53:34;;;;;;;19.17;5.57;;;;;;;22.40;48.99;92974.41;5003444;28;20034;-74
2022/05/17 06:55:59;;;;;;;17.98;5.53;;;;;;;22.90;45.25;92966.66;5006803;28;20025;-74
2022/05/17 06:58:28;;;;;;;37.95;7.25;;;;;;;22.83;49.29;92974.50;4989707;28;20484;-74
2022/05/17 07:00:55;;;;;;;35.75;7.45;;;;;;;22.32;52.81;92977.25;4993426;28;20038;-74
2022/05/17 07:03:22;;;;;;;20.77;7.15;;;;;;;22.19;53.72;92979.97;5011339;28;20395;-74
2022/05/17 07:05:47;;;;;;;25.75;7.80;;;;;;;21.63;54.85;92980.16;4994723;28;20053;-74
2022/05/17 07:08:13;;;;;;;19.63;6.80;;;;;;;21.45;55.67;92982.38;4994133;28;20038;-74
2022/05/17 07:13:23;;;;;;;18.83;7.65;;;;;;;20.68;58.32;92979.91;5010986;28;20034;-74
2022/05/17 07:15:50;;;;;;;23.45;6.22;;;;;;;20.37;59.72;92981.28;5010232;28;20516;-74
2022/05/17 07:18:20;;;;;;;19.88;6.40;;;;;;;20.10;60.51;92980.09;4976969;28;20407;-74
2022/05/17 07:20:47;;;;;;;14.82;6.05;;;;;;;20.14;61.58;92979.06;5009459;28;20117;-74
2022/05/17 07:23:15;;;;;;;24.13;6.28;;;;;;;20.30;61.15;92979.16;4977736;28;20476;-74
2022/05/17 07:25:44;;;;;;;20.08;6.75;;;;;;;20.58;60.64;92984.59;4973532;28;20144;-74
2022/05/17 07:28:13;;;;;;;27.35;7.30;;;;;;;20.22;60.32;92981.94;4991681;28;20172;-74
2022/05/17 07:30:39;;;;;;;27.75;7.32;;;;;;;20.17;62.15;92986.41;4998902;28;20042;-74
2022/05/17 07:33:05;;;;;;;14.45;6.07;;;;;;;20.49;61.93;92983.91;4990509;28;20061;-74
2022/05/17 07:35:31;;;;;;;19.85;6.30;;;;;;;20.71;60.45;92985.31;5011303;28;20033;-74
2022/05/17 07:37:57;;;;;;;20.95;5.82;;;;;;;21.04;59.86;92987.00;4976762;28;20673;-74
2022/05/17 07:40:23;;;;;;;19.85;6.38;;;;;;;21.16;59.52;92980.84;5010552;28;20046;-74
2022/05/17 07:42:50;;;;;;;18.80;6.25;;;;;;;20.68;59.76;92985.22;5008663;28;20031;-74
2022/05/17 07:45:16;;;;;;;27.85;5.93;;;;;;;20.91;58.72;92986.25;5010416;28;20042;-74
2022/05/17 07:47:42;;;;;;;27.98;6.32;;;;;;;21.24;58.52;92987.16;5011092;28;20034;-74
2022/05/17 07:50:08;;;;;;;24.90;6.03;;;;;;;21.51;58.58;92977.59;4992994;28;20056;-74
2022/05/17 07:52:34;;;;;;;24.67;6.30;;;;;;;21.88;56.37;92990.66;4993730;28;20057;-74
2022/05/17 07:55:00;;;;;;;26.63;7.15;;;;;;;21.80;57.33;92989.72;4973014;28;20030;-74
2022/05/17 07:57:27;;;;;;;19.27;5.55;;;;;;;21.24;57.97;92990.56;4974320;28;20121;-74
2022/05/17 07:59:53;;;;;;;20.27;6.50;;;;;;;20.86;57.97;92985.75;4976197;28;20116;-74
2022/05/17 08:02:19;;;;;;;17.65;5.80;;;;;;;21.12;59.87;92978.09;5010285;28;20061;-74
2022/05/17 08:04:45;;;;;;;19.67;5.85;;;;;;;21.39;58.20;92987.19;4977155;28;20042;-74
2022/05/17 08:07:11;;;;;;;18.83;5.65;;;;;;;21.59;56.13;92968.66;4991823;28;20042;-74
2022/05/17 08:09:37;;;;;;;16.05;5.50;;;;;;;21.17;58.38;92974.41;4992912;28;20037;-74
2022/05/17 08:12:07;;;;;;;24.02;6.40;;;;;;;21.00;56.55;92978.91;4992301;28;20042;-74
2022/05/17 08:14:38;;;;;;;16.25;5.70;;;;;;;21.13;56.50;92970.88;5011745;28;20038;-74
2022/05/17 08:17:07;;;;;;;26.37;5.97;;;;;;;21.31;55.44;92980.09;5012709;28;20038;-74
2022/05/17 08:19:35;;;;;;;14.60;5.50;;;;;;;21.57;55.81;92970.88;4996113;28;20065;-74
2022/05/17 08:22:03;;;;;;;20.75;5.30;;;;;;;21.65;55.20;92966.53;4980165;28;20037;-74
2022/05/17 08:27:31;;;;;;;18.27;5.50;;;;;;;21.81;54.20;92968.06;4979828;28;20050;-74
2022/05/17 08:27:36;;;;;;;16.15;5.70;;;;;;;21.87;54.65;92973.16;4996957;28;20072;-74
2022/05/17 08:30:12;;;;;;;18.67;6.10;;;;;;;21.64;55.32;92976.41;4980827;28;20350;-74
2022/05/17 08:35:51;;;;;;;18.40;5.82;;;;;;;21.56;55.80;92966.69;4996692;28;20053;-74
2022/05/17 08:38:20;;;;;;;18.88;6.40;;;;;;;21.70;56.84;92974.25;4987930;28;20137;-74
2022/05/17 08:41:11;;;;;;;49.55;8.27;;;;;;;21.80;56.53;92968.41;4994674;28;20121;-74
2022/05/17 08:43:54;;;;;;;17.08;5.88;;;;;;;21.89;55.57;92961.03;4979656;28;20041;-74
2022/05/17 08:46:26;;;;;;;17.80;7.00;;;;;;;21.86;57.04;92972.34;4993610;28;20048;-74
2022/05/17 08:49:16;;;;;;;21.45;6.10;;;;;;;21.70;57.05;92967.03;4996518;28;20045;-74
2022/05/17 08:51:51;;;;;;;23.92;5.82;;;;;;;21.79;56.97;92964.19;5013517;28;20065;-74
2022/05/17 08:54:23;;;;;;;19.13;5.88;;;;;;;21.76;57.16;92962.22;4995604;28;20037;-74
2022/05/17 08:56:56;;;;;;;18.10;6.45;;;;;;;21.66;56.36;92968.84;4995837;28;20030;-73
2022/05/17 08:59:23;;;;;;;14.93;5.70;;;;;;;21.72;56.85;92964.03;4996409;28;20038;-74
2022/05/17 09:02:11;;;;;;;14.23;5.28;;;;;;;22.07;52.43;92966.00;5013459;28;20491;-74
2022/05/17 09:04:52;;;;;;;19.50;5.57;;;;;;;22.10;54.78;92962.63;5012595;28;20563;-74
2022/05/17 09:07:24;;;;;;;19.13;5.60;;;;;;;21.95;54.06;92962.31;4995517;28;20407;-74
2022/05/17 09:10:05;;;;;;;20.80;6.40;;;;;;;22.06;55.10;92964.44;4996925;28;20515;-74
2022/05/17 09:12:54;;;;;;;39.10;7.25;;;;;;;22.36;54.16;92962.06;5011108;28;20113;-74
2022/05/17 09:15:20;;;;;;;86.18;10.98;;;;;;;22.42;56.07;92964.13;5010896;28;20117;-74
2022/05/17 09:17:47;;;;;;;102.70;9.65;;;;;;;22.41;55.82;92954.59;5013543;28;20116;-74
2022/05/17 09:20:18;;;;;;;38.95;7.20;;;;;;;22.28;54.66;92950.50;4994982;28;20034;-74
2022/05/17 09:22:44;;;;;;;17.08;6.07;;;;;;;22.38;55.94;92965.97;5013486;28;20037;-74
2022/05/17 09:25:20;;;;;;;17.20;6.10;;;;;;;22.31;56.81;92959.69;4983836;28;20034;-74
2022/05/17 09:27:52;;;;;;;18.92;5.45;;;;;;;22.56;55.36;92950.34;4993831;28;20034;-74
2022/05/17 09:30:23;;;;;;;19.67;6.40;;;;;;;22.61;55.87;92947.38;4978769;28;20045;-74
2022/05/17 09:33:11;;;;;;;19.83;6.45;;;;;;;22.14;55.93;92948.25;5013214;28;20037;-74
2022/05/17 09:35:55;;;;;;;15.77;5.28;;;;;;;22.19;55.59;92953.31;5000426;28;20117;-74
2022/05/17 09:38:21;;;;;;;19.30;6.50;;;;;;;22.17;57.41;92952.13;5013142;28;20512;-74
2022/05/17 09:40:50;;;;;;;28.25;6.90;;;;;;;22.19;56.92;92952.56;5012665;28;20839;-74
2022/05/17 09:43:17;;;;;;;18.00;6.93;;;;;;;22.48;54.76;92953.97;5013040;28;20491;-74
2022/05/17 09:45:45;;;;;;;30.23;7.32;;;;;;;22.46;55.25;92942.88;4995161;28;20100;-74
2022/05/17 09:48:13;;;;;;;25.60;6.93;;;;;;;22.73;55.11;92948.38;5012617;28;20051;-74
2022/05/17 09:53:44;;;;;;;21.42;6.88;;;;;;;23.05;53.80;92938.34;4995134;28;20038;-74
2022/05/17 09:56:10;;;;;;;16.52;7.35;;;;;;;22.97;54.21;92948.09;4998992;28;20040;-74
2022/05/17 09:58:39;;;;;;;18.88;6.70;;;;;;;23.17;53.94;92945.41;5005701;28;20118;-74
2022/05/17 10:01:16;;;;;;;17.45;6.82;;;;;;;22.93;53.42;92939.25;4993193;28;20033;-74
2022/05/17 10:03:58;;;;;;;18.48;6.55;;;;;;;23.00;51.43;92944.75;4975650;28;20104;-74
2022/05/17 10:06:28;;;;;;;26.55;6.63;;;;;;;22.91;53.33;92941.50;4993572;28;20116;-74
2022/05/17 10:09:06;;;;;;;23.13;4.65;;;;;;;22.77;39.64;92939.31;5008868;28;20044;-74
2022/05/17 10:11:45;;;;;;;10.55;4.13;;;;;;;23.31;45.17;92935.00;5010967;28;20034;-74
2022/05/17 10:14:36;;;;;;;17.60;5.80;;;;;;;23.53;50.68;92932.69;5011719;28;20049;-74
2022/05/17 10:17:11;;;;;;;19.38;6.75;;;;;;;23.49;49.36;92928.06;5007303;28;20076;-77
2022/05/17 10:19:50;;;;;;;15.77;6.38;;;;;;;23.72;48.17;92929.97;5011195;28;20434;-77
2022/05/17 10:22:36;;;;;;;16.23;6.18;;;;;;;23.53;47.97;92930.03;5008734;28;20037;-77
2022/05/17 10:25:09;;;;;;;16.45;5.80;;;;;;;23.51;48.83;92925.06;4995117;28;20038;-77
2022/05/17 10:27:40;;;;;;;13.63;5.75;;;;;;;23.55;49.06;92925.88;4989924;28;20038;-77
2022/05/17 10:30:20;;;;;;;15.10;5.13;;;;;;;23.55;49.65;92927.78;5006592;28;20053;-76
2022/05/17 10:32:59;;;;;;;15.88;5.80;;;;;;;23.26;48.69;92927.31;5012612;28;20439;-77
2022/05/17 10:35:47;;;;;;;13.73;5.47;;;;;;;23.43;47.54;92924.16;4998538;28;20113;-77
2022/05/17 10:38:18;;;;;;;15.90;5.43;;;;;;;23.35;46.65;92919.84;4977722;28;20145;-77
2022/05/17 10:40:47;;;;;;;13.80;5.20;;;;;;;23.34;44.42;92918.28;4999264;28;20029;-77
2022/05/17 10:43:34;;;;;;;14.35;5.60;;;;;;;23.40;46.86;92922.19;5010878;28;20573;-77
2022/05/17 10:46:17;;;;;;;13.20;5.20;;;;;;;23.54;47.60;92915.56;4992213;28;20730;-77
2022/05/17 10:49:06;;;;;;;12.77;5.60;;;;;;;23.49;46.05;92909.38;5012637;28;20120;-77
2022/05/17 10:51:53;;;;;;;15.35;5.82;;;;;;;23.51;45.73;92909.03;4990883;28;20026;-77
2022/05/17 10:54:32;;;;;;;12.13;4.95;;;;;;;23.86;46.52;92906.16;4990661;28;20108;-77
2022/05/17 10:57:00;;;;;;;15.02;4.68;;;;;;;24.14;42.44;92907.72;5011695;28;20037;-76
2022/05/17 10:59:40;;;;;;;15.68;5.35;;;;;;;24.25;45.21;92900.63;5006153;28;20033;-77
2022/05/17 11:02:24;;;;;;;12.10;4.65;;;;;;;24.31;44.32;92901.06;4989442;28;20427;-77
2022/05/17 11:05:09;;;;;;;15.25;5.25;;;;;;;24.16;45.50;92902.00;4997981;28;20057;-77
2022/05/17 11:07:42;;;;;;;13.00;4.68;;;;;;;24.51;46.22;92901.75;4984367;28;20088;-77
2022/05/17 11:11:00;;;;;;;15.13;4.80;;;;;;;24.49;42.52;92896.75;5001358;28;20139;-77
2022/05/17 11:13:47;;;;;;;14.45;5.95;;;;;;;24.30;43.64;92886.94;4968488;28;20034;-77
2022/05/17 11:16:40;;;;;;;;;;;;;;;24.05;44.01;92888.50;4961733;28;20105;-76
2022/05/17 11:19:29;;;;;;;12.23;4.63;;;;;;;23.92;42.71;92892.50;4983919;28;19920;-77
2022/05/17 11:22:07;;;;;;;12.88;4.55;;;;;;;24.19;44.57;92885.25;4977087;28;20057;-77
2022/05/17 11:24:42;;;;;;;12.18;4.57;;;;;;;24.51;41.46;92883.78;4992343;28;20034;-77
2022/05/17 11:27:36;;;;;;;15.05;4.65;;;;;;;24.50;42.06;92878.81;4985665;28;20072;-77
2022/05/17 11:30:09;;;;;;;13.98;4.40;;;;;;;24.68;42.26;92871.75;5005583;28;20037;-76
2022/05/17 11:32:42;;;;;;;12.07;4.60;;;;;;;24.56;43.10;92871.97;4994223;28;20467;-77
2022/05/17 11:35:26;;;;;;;10.60;4.22;;;;;;;24.64;42.20;92867.50;5011743;28;20394;-77
2022/05/17 11:37:52;;;;;;;14.43;4.80;;;;;;;24.81;43.15;92872.25;5008214;28;20050;-77
2022/05/17 11:40:43;;;;;;;17.73;4.40;;;;;;;24.77;41.57;92873.34;4993237;28;20034;-77
2022/05/17 11:45:56;;;;;;;17.30;4.43;;;;;;;24.96;39.83;92857.13;4974254;28;20037;-78
2022/05/17 11:48:46;;;;;;;14.30;4.30;;;;;;;25.29;40.14;92859.00;4978531;28;20521;-78
2022/05/17 11:51:11;;;;;;;9.25;3.65;;;;;;;25.25;40.42;92852.84;5005562;28;20097;-77
2022/05/17 11:53:44;;;;;;;15.70;5.28;;;;;;;25.18;40.00;92847.41;4998921;28;20136;-77
2022/05/17 11:56:38;;;;;;;13.50;4.47;;;;;;;24.97;39.83;92850.66;5016823;28;20037;-77